Arlington Heights, Illinois
Current Conditions -  °F | °C
As of 6:52 AM on Friday 28 Nov 2014 (Local Time) from KPWK Reporting Station
Light Snow Light Snow  
Wind Chill:   Ceiling: 4200
Heat Index: 20°   Visibility: 5mi
Dew Point: 13°   Wind: 9mph
Humidity: 74%   Direction: 180°S
Pressure: 30.3"   Gusts: NA
Location:  42.14°N, 87.99°W
Report Text: KPWK 281252Z 18008KT 5SM -SN OVC042 M07/M11 A3030 RMK AO2 SNB32 SLP271 P0000 T10671106
Loading
Personal Weather Stations






























Interactive Weather Map New forecast layout! Learn more

10-Day Weather Forecast

Advertisements
Track Severe Weather on mobile